Hovedside
METAR-TAF:

METAR-TAF

Lufthavner :

Pointe-Noire, Kongo

breddegrad: 04-49S, lengdegrad: 011-54E, høyde over havet: 17 m

Gjeldene værobservasjon

Denne rapporten ble laget for 1 time og 2 minutter siden, klokken 03:00 UTC
Vind 5 kt fra Øst
Temperatur 23°C
Luftfuktighet 94%
Trykk 1011 hPa
Sikt: 8000 m
Spredte skyer i en høyde av 900 ft
Brutte skyer i en høyde av 1800 ft

METAR: FCPP 200300Z 10005KT 8000 SCT009 BKN018 23/22 Q1011 NOSIG

Tid: 05:02 (04:02 UTC)

Varsel

Denne rapporten ble laget for 5 timer og 2 minutter siden, klokken 23:00 UTC
Varsel gyldig fra 20. klokken 00 UTC til 20. klokken 24 UTC
Vind 6 kt fra Sør-sørvest
Sikt: 9000 m
Spredte skyer i en høyde av 2000 ft

TAF: FCPP 192300Z 2000/2024 20006KT 9000 SCT020

Værobservasjoner og værvarsel for over 4000 flyplasser (METAR- og TAF-rapporter).

Tilgjengelige stasjoner er representert av de røde og gule prikkene på kartet.

Hold musepekeren over prikken for å se navnet på stasjonen.

Klikk så for å se værobservasjoner og -varsler.

For å forandre kartet kan du klikke på den grønne knappen med svart kryss for å zoome inn, på den grønne knappen med strek for å zoome ut, eller på de grønne pilene for å se tilstøtende kart.


METAR-TAF: